Aviation Digital Data Service (ADDS)

Output produced by METARs form (0837 UTC 18 February 2019)
found at http://www.aviationweather.gov/metar/data/
 
Forecast for: CYFC (FREDERICTON AIRP, NB, CA)
Text: TAF CYFC 180538Z 1806/1818 VRB03KT P6SM BKN170
Forecast period: 0600 to 1500 UTC 18 February 2019
Forecast type: FROM: standard forecast or significant change
Winds: variable direction winds at 3 MPH (3 knots; 1.5 m/s)
Visibility: 6 or more miles 10+ km)
Ceiling: 17000 feet AGL
Clouds: broken clouds at 17000 feet AGL
Weather: no significant weather forecast for this period
Text: FM181500 35005KT P6SM BKN120 RMK FCST BASED ON AUTO OBS. NXT FCST BY 181200Z
Forecast period: 1500 to 1800 UTC 18 February 2019
Forecast type: FROM: standard forecast or significant change
Winds: from the N (350 degrees) at 6 MPH (5 knots; 2.6 m/s)
Visibility: 6 or more miles 10+ km)
Ceiling: 12000 feet AGL
Clouds: broken clouds at 12000 feet AGL
Weather: no significant weather forecast for this period